Time,TemperatureF,DewpointF,PressureIn,WindDirection,WindDirectionDegrees,WindSpeedMPH,WindSpeedGustMPH,Humidity,HourlyPrecipIn,Conditions,Clouds,dailyrainin,SolarRadiationWatts/m^2,SoftwareType,DateUTC
2013-10-16 00:02:00,61.9,60.7,29.87,SW,214,2.7,8.0,96,0.05,-RA,,0.07,0.0,WeatherDisplay:10.37,2013-10-16 04:02:00,
2013-10-16 00:03:00,61.9,60.7,29.86,South,169,3.4,4.0,96,0.05,-RA,,0.07,0.0,WeatherDisplay:10.37,2013-10-16 04:03:00,
2013-10-16 00:07:00,61.9,60.7,29.86,SW,219,2.2,5.8,96,0.05,-RA,,0.07,0.0,WeatherDisplay:10.37,2013-10-16 04:07:00,
2013-10-16 00:12:00,62.0,60.6,29.86,SSW,207,3.2,6.9,95,0.04,-RA,,0.07,0.0,WeatherDisplay:10.37,2013-10-16 04:12:00,
2013-10-16 00:17:00,62.0,60.6,29.86,SSE,165,2.7,4.6,95,0.03,-RA,,0.07,0.0,WeatherDisplay:10.37,2013-10-16 04:17:00,
2013-10-16 00:22:00,62.0,60.6,29.86,SW,224,3.9,4.6,95,0.02,-RA,,0.07,0.0,WeatherDisplay:10.37,2013-10-16 04:22:00,
2013-10-16 00:27:00,62.0,60.6,29.86,ESE,111,3.8,6.9,95,0.02,-RA,,0.07,0.0,WeatherDisplay:10.37,2013-10-16 04:27:00,
2013-10-16 00:32:00,62.0,60.6,29.86,SSE,167,2.4,5.8,95,0.02,-RA,,0.07,0.0,WeatherDisplay:10.37,2013-10-16 04:32:00,
2013-10-16 00:37:00,62.0,60.6,29.86,SW,217,3.5,9.2,95,0.01,-RA,,0.07,0.0,WeatherDisplay:10.37,2013-10-16 04:37:00,
2013-10-16 00:42:00,62.1,60.7,29.86,SW,219,5.0,5.8,95,0.01,-RA,,0.07,0.0,WeatherDisplay:10.37,2013-10-16 04:42:00,
2013-10-16 00:47:00,62.1,60.7,29.86,SE,143,1.3,3.5,95,0.01,-RA,,0.07,0.0,WeatherDisplay:10.37,2013-10-16 04:47:00,
2013-10-16 00:52:00,62.1,60.7,29.85,West,259,3.3,7.0,95,0.00,-RA,,0.07,0.0,WeatherDisplay:10.37,2013-10-16 04:52:00,
2013-10-16 00:57:00,62.0,60.6,29.85,SW,232,1.5,5.8,95,0.00,-RA,,0.07,0.0,WeatherDisplay:10.37,2013-10-16 04:57:00,
2013-10-16 01:02:00,62.0,60.6,29.85,SSW,210,3.8,9.2,95,0.00,-RA,,0.07,0.0,WeatherDisplay:10.37,2013-10-16 05:02:00,
2013-10-16 01:07:00,62.0,60.6,29.85,SSW,198,3.4,4.6,95,0.00,-RA,,0.07,0.0,WeatherDisplay:10.37,2013-10-16 05:07:00,
2013-10-16 01:12:00,62.0,60.6,29.85,SSE,161,2.3,6.0,95,0.00,-RA,,0.07,0.0,WeatherDisplay:10.37,2013-10-16 05:12:00,
2013-10-16 01:17:00,62.0,60.6,29.85,NW,304,4.9,8.1,95,0.00,-RA,,0.07,0.0,WeatherDisplay:10.37,2013-10-16 05:17:00,
2013-10-16 01:22:00,62.0,60.6,29.85,SSW,194,4.2,6.9,95,0.00,-RA,,0.07,0.0,WeatherDisplay:10.37,2013-10-16 05:22:00,
2013-10-16 01:27:00,62.0,60.6,29.85,South,182,1.6,3.5,95,0.00,-RA,,0.07,0.0,WeatherDisplay:10.37,2013-10-16 05:27:00,
2013-10-16 01:32:00,61.9,60.5,29.85,South,171,2.7,4.6,95,0.00,-RA,,0.07,0.0,WeatherDisplay:10.37,2013-10-16 05:32:00,
2013-10-16 01:37:00,61.9,60.5,29.85,SSW,198,3.1,4.0,95,0.00,-RA,,0.07,0.0,WeatherDisplay:10.37,2013-10-16 05:37:00,
2013-10-16 01:42:00,61.8,60.4,29.85,East,97,1.6,3.5,95,0.00,-RA,,0.07,0.0,WeatherDisplay:10.37,2013-10-16 05:42:00,
2013-10-16 01:47:00,61.8,60.4,29.85,WNW,300,0.8,2.3,95,0.00,-RA,,0.07,0.0,WeatherDisplay:10.37,2013-10-16 05:47:00,
2013-10-16 01:52:00,61.7,60.3,29.85,SSW,213,1.9,3.5,95,0.00,-RA,,0.07,0.0,WeatherDisplay:10.37,2013-10-16 05:52:00,
2013-10-16 01:57:00,61.7,60.3,29.86,WSW,240,2.2,4.6,95,0.00,-RA,,0.07,0.0,WeatherDisplay:10.37,2013-10-16 05:57:00,
2013-10-16 02:02:00,61.6,60.2,29.86,WNW,300,2.5,5.0,95,0.00,OVC,,0.07,0.0,WeatherDisplay:10.37,2013-10-16 06:02:00,
2013-10-16 02:07:00,61.4,60.0,29.86,SSW,198,1.5,3.5,95,0.00,OVC,,0.07,0.0,WeatherDisplay:10.37,2013-10-16 06:07:00,
2013-10-16 02:12:00,61.4,60.0,29.86,West,276,1.4,5.8,95,0.00,OVC,,0.07,0.0,WeatherDisplay:10.37,2013-10-16 06:12:00,
2013-10-16 02:17:00,61.3,59.9,29.85,SW,230,1.9,3.5,95,0.00,OVC,,0.07,0.0,WeatherDisplay:10.37,2013-10-16 06:17:00,
2013-10-16 02:22:00,61.2,59.8,29.86,West,274,1.6,3.5,95,0.00,OVC,,0.07,0.0,WeatherDisplay:10.37,2013-10-16 06:22:00,
2013-10-16 02:27:00,61.1,59.7,29.86,SSW,203,0.8,2.3,95,0.00,OVC,,0.07,0.0,WeatherDisplay:10.37,2013-10-16 06:27:00,
2013-10-16 02:32:00,60.9,59.5,29.86,SSE,153,1.2,2.3,95,0.00,OVC,,0.07,0.0,WeatherDisplay:10.37,2013-10-16 06:32:00,
2013-10-16 02:37:00,60.8,59.4,29.86,SSE,152,1.2,2.3,95,0.00,OVC,,0.07,0.0,WeatherDisplay:10.37,2013-10-16 06:37:00,
2013-10-16 02:42:00,60.7,59.3,29.86,SW,233,1.7,3.5,95,0.00,OVC,,0.07,0.0,WeatherDisplay:10.37,2013-10-16 06:42:00,
2013-10-16 02:47:00,60.6,59.2,29.86,NW,310,0.8,2.3,95,0.00,OVC,,0.07,0.0,WeatherDisplay:10.37,2013-10-16 06:47:00,
2013-10-16 02:52:00,60.5,59.4,29.86,SSW,200,1.1,3.5,96,0.00,OVC,,0.07,0.0,WeatherDisplay:10.37,2013-10-16 06:52:00,
2013-10-16 02:57:00,60.4,59.3,29.86,SW,217,0.9,3.5,96,0.00,OVC,,0.07,0.0,WeatherDisplay:10.37,2013-10-16 06:57:00,
2013-10-16 03:02:00,60.4,59.0,29.86,SW,229,0.6,2.3,95,0.00,OVC,,0.07,0.0,WeatherDisplay:10.37,2013-10-16 07:02:00,
2013-10-16 03:07:00,60.3,58.9,29.85,West,261,1.1,4.0,95,0.00,OVC,,0.07,0.0,WeatherDisplay:10.37,2013-10-16 07:07:00,
2013-10-16 03:12:00,60.3,59.2,29.85,SSW,193,1.4,2.3,96,0.00,OVC,,0.07,0.0,WeatherDisplay:10.37,2013-10-16 07:12:00,
2013-10-16 03:17:00,60.2,59.1,29.85,SSE,151,1.2,2.3,96,0.00,OVC,,0.07,0.0,WeatherDisplay:10.37,2013-10-16 07:17:00,
2013-10-16 03:22:00,60.2,58.8,29.85,SSE,155,2.8,4.6,95,0.00,BKN,,0.07,0.0,WeatherDisplay:10.37,2013-10-16 07:22:00,
2013-10-16 03:27:00,60.1,59.0,29.85,WSW,243,1.3,3.5,96,0.00,BKN,,0.07,0.0,WeatherDisplay:10.37,2013-10-16 07:27:00,
2013-10-16 03:32:00,60.0,58.9,29.85,SSE,168,1.2,4.6,96,0.00,BKN,,0.07,0.0,WeatherDisplay:10.37,2013-10-16 07:32:00,
2013-10-16 03:37:00,60.0,58.9,29.85,SSE,163,1.4,2.3,96,0.00,BKN,,0.07,0.0,WeatherDisplay:10.37,2013-10-16 07:37:00,
2013-10-16 03:42:00,59.9,58.8,29.85,SSW,197,1.9,3.5,96,0.00,BKN,,0.07,0.0,WeatherDisplay:10.37,2013-10-16 07:42:00,
2013-10-16 03:47:00,59.9,58.8,29.84,SSW,199,0.5,1.2,96,0.00,BKN,,0.07,0.0,WeatherDisplay:10.37,2013-10-16 07:47:00,
2013-10-16 03:52:00,59.8,58.7,29.84,West,273,3.0,4.0,96,0.00,BKN,,0.07,0.0,WeatherDisplay:10.37,2013-10-16 07:52:00,
2013-10-16 03:57:00,59.7,58.6,29.84,SSW,213,0.7,2.3,96,0.00,BKN,,0.07,0.0,WeatherDisplay:10.37,2013-10-16 07:57:00,
2013-10-16 04:02:00,59.6,58.5,29.84,SW,221,0.4,2.0,96,0.00,BKN,,0.07,0.0,WeatherDisplay:10.37,2013-10-16 08:02:00,
2013-10-16 04:07:00,59.6,58.5,29.83,SE,127,1.5,3.5,96,0.00,BKN,,0.07,0.0,WeatherDisplay:10.37,2013-10-16 08:07:00,
2013-10-16 04:12:00,59.6,58.5,29.83,SSW,203,3.4,4.6,96,0.00,BKN,,0.07,0.0,WeatherDisplay:10.37,2013-10-16 08:12:00,
2013-10-16 04:17:00,59.6,58.5,29.83,WSW,250,1.0,3.5,96,0.00,BKN,,0.07,0.0,WeatherDisplay:10.37,2013-10-16 08:17:00,
2013-10-16 04:22:00,59.5,58.4,29.83,SSW,206,0.8,1.2,96,0.00,BKN,,0.07,0.0,WeatherDisplay:10.37,2013-10-16 08:22:00,
2013-10-16 04:27:00,59.4,58.3,29.83,SSW,200,1.2,3.5,96,0.00,BKN,,0.07,0.0,WeatherDisplay:10.37,2013-10-16 08:27:00,
2013-10-16 04:32:00,59.4,58.3,29.83,SW,218,1.5,3.5,96,0.00,BKN,,0.07,0.0,WeatherDisplay:10.37,2013-10-16 08:32:00,
2013-10-16 04:37:00,59.3,58.2,29.83,SE,132,2.7,4.6,96,0.00,BKN,,0.07,0.0,WeatherDisplay:10.37,2013-10-16 08:37:00,
2013-10-16 04:42:00,59.4,58.3,29.83,SSW,209,0.8,2.0,96,0.00,BKN,,0.07,0.0,WeatherDisplay:10.37,2013-10-16 08:42:00,
2013-10-16 04:47:00,59.5,58.6,29.84,SSW,204,2.5,4.0,97,0.00,BKN,,0.07,0.0,WeatherDisplay:10.37,2013-10-16 08:47:00,
2013-10-16 04:52:00,59.4,58.5,29.83,SSW,205,0.3,3.5,97,0.00,BKN,,0.07,0.0,WeatherDisplay:10.37,2013-10-16 08:52:00,
2013-10-16 04:57:00,59.4,58.3,29.83,SSW,213,0.7,2.3,96,0.00,BKN,,0.07,0.0,WeatherDisplay:10.37,2013-10-16 08:57:00,
2013-10-16 05:02:00,59.3,58.2,29.83,SSW,194,0.7,2.3,96,0.00,BKN,,0.07,0.0,WeatherDisplay:10.37,2013-10-16 09:02:00,
2013-10-16 05:07:00,59.2,58.1,29.83,SSW,201,1.3,2.3,96,0.00,BKN,,0.07,0.0,WeatherDisplay:10.37,2013-10-16 09:07:00,
2013-10-16 05:12:00,59.2,58.1,29.83,WSW,258,1.4,2.3,96,0.00,BKN,,0.07,0.0,WeatherDisplay:10.37,2013-10-16 09:12:00,
2013-10-16 05:17:00,59.3,58.4,29.83,ESE,119,1.4,3.5,97,0.00,BKN,,0.07,0.0,WeatherDisplay:10.37,2013-10-16 09:17:00,
2013-10-16 05:22:00,59.3,58.4,29.84,SSW,205,0.6,1.2,97,0.00,BKN,,0.07,0.0,WeatherDisplay:10.37,2013-10-16 09:22:00,
2013-10-16 05:27:00,59.3,58.4,29.83,SSW,212,0.9,3.5,97,0.00,BKN,,0.07,0.0,WeatherDisplay:10.37,2013-10-16 09:27:00,
2013-10-16 05:32:00,59.3,58.2,29.83,West,266,2.0,3.5,96,0.00,BKN,,0.07,0.0,WeatherDisplay:10.37,2013-10-16 09:32:00,
2013-10-16 05:37:00,59.2,58.1,29.83,SSW,194,0.5,3.5,96,0.00,BKN,,0.07,0.0,WeatherDisplay:10.37,2013-10-16 09:37:00,
2013-10-16 05:42:00,59.1,58.0,29.83,SSW,198,0.6,2.3,96,0.00,BKN,,0.07,0.0,WeatherDisplay:10.37,2013-10-16 09:42:00,
2013-10-16 05:47:00,59.0,57.9,29.83,South,173,1.5,3.5,96,0.00,BKN,,0.07,0.0,WeatherDisplay:10.37,2013-10-16 09:47:00,
2013-10-16 05:52:00,58.9,57.8,29.83,SSW,195,0.9,2.3,96,0.00,BKN,,0.07,0.0,WeatherDisplay:10.37,2013-10-16 09:52:00,
2013-10-16 05:57:00,58.9,57.8,29.83,South,188,1.7,3.5,96,0.00,BKN,,0.07,0.0,WeatherDisplay:10.37,2013-10-16 09:57:00,
2013-10-16 06:02:00,58.9,57.8,29.83,SSE,167,2.9,3.5,96,0.00,BKN,,0.07,0.0,WeatherDisplay:10.37,2013-10-16 10:02:00,
2013-10-16 06:07:00,59.1,58.2,29.83,SW,214,3.5,5.8,97,0.00,BKN,,0.07,0.0,WeatherDisplay:10.37,2013-10-16 10:07:00,
2013-10-16 06:12:00,59.2,58.3,29.83,SW,234,2.4,3.5,97,0.00,BKN,,0.07,0.0,WeatherDisplay:10.37,2013-10-16 10:12:00,
2013-10-16 06:17:00,59.1,58.0,29.83,SW,220,1.3,3.5,96,0.00,BKN,,0.07,0.0,WeatherDisplay:10.37,2013-10-16 10:17:00,
2013-10-16 06:22:00,59.1,58.0,29.83,South,174,1.3,3.5,96,0.00,BKN,,0.07,0.0,WeatherDisplay:10.37,2013-10-16 10:22:00,
2013-10-16 06:27:00,59.0,57.9,29.83,South,191,2.1,3.5,96,0.00,BKN,,0.07,0.0,WeatherDisplay:10.37,2013-10-16 10:27:00,
2013-10-16 06:32:00,59.0,57.9,29.84,SSW,200,1.1,1.2,96,0.00,BKN,,0.07,0.0,WeatherDisplay:10.37,2013-10-16 10:32:00,
2013-10-16 06:37:00,59.0,57.9,29.84,South,185,1.7,3.5,96,0.00,BKN,,0.07,0.0,WeatherDisplay:10.37,2013-10-16 10:37:00,
2013-10-16 06:42:00,58.9,57.8,29.83,SSE,162,0.7,2.3,96,0.00,BKN,,0.07,0.0,WeatherDisplay:10.37,2013-10-16 10:42:00,
2013-10-16 06:47:00,58.9,57.8,29.84,SSE,162,0.1,1.0,96,0.00,BKN,,0.07,0.0,WeatherDisplay:10.37,2013-10-16 10:47:00,
2013-10-16 06:52:00,58.7,57.6,29.84,South,175,0.8,1.2,96,0.00,BKN,,0.07,0.0,WeatherDisplay:10.37,2013-10-16 10:52:00,
2013-10-16 06:57:00,58.6,57.5,29.84,SE,134,1.2,2.3,96,0.00,BKN,,0.07,0.0,WeatherDisplay:10.37,2013-10-16 10:57:00,
2013-10-16 07:02:00,58.7,57.6,29.83,SSW,203,0.9,2.3,96,0.00,OVC,,0.07,0.0,WeatherDisplay:10.37,2013-10-16 11:02:00,
2013-10-16 07:07:00,58.7,57.6,29.84,SSW,201,2.6,3.5,96,0.00,OVC,,0.07,0.0,WeatherDisplay:10.37,2013-10-16 11:07:00,
2013-10-16 07:12:00,58.7,57.9,29.84,NNW,333,2.8,3.5,97,0.00,OVC,,0.07,0.0,WeatherDisplay:10.37,2013-10-16 11:12:00,
2013-10-16 07:17:00,58.6,57.5,29.84,West,273,1.6,4.6,96,0.00,OVC,,0.07,0.0,WeatherDisplay:10.37,2013-10-16 11:17:00,
2013-10-16 07:22:00,58.1,56.4,29.84,WSW,238,1.9,3.5,94,0.00,OVC,,0.07,0.0,WeatherDisplay:10.37,2013-10-16 11:22:00,
2013-10-16 07:27:00,57.4,54.2,29.84,WSW,239,3.5,6.9,89,0.00,OVC,,0.07,0.0,WeatherDisplay:10.37,2013-10-16 11:27:00,
2013-10-16 07:32:00,56.9,53.7,29.84,West,267,4.9,8.1,89,0.00,OVC,,0.07,0.0,WeatherDisplay:10.37,2013-10-16 11:32:00,
2013-10-16 07:37:00,56.6,53.4,29.85,West,263,4.4,6.9,89,0.00,OVC,,0.07,0.0,WeatherDisplay:10.37,2013-10-16 11:37:00,
2013-10-16 07:42:00,56.3,53.4,29.84,West,271,1.7,4.6,90,0.00,OVC,,0.07,0.0,WeatherDisplay:10.37,2013-10-16 11:42:00,
2013-10-16 07:47:00,56.0,53.1,29.85,WSW,249,2.4,4.0,90,0.00,OVC,,0.07,0.0,WeatherDisplay:10.37,2013-10-16 11:47:00,
2013-10-16 07:52:00,55.8,53.2,29.85,WSW,250,1.7,3.5,91,0.00,OVC,,0.07,0.0,WeatherDisplay:10.37,2013-10-16 11:52:00,
2013-10-16 07:57:00,55.6,53.0,29.84,West,264,0.2,2.3,91,0.00,OVC,,0.07,0.0,WeatherDisplay:10.37,2013-10-16 11:57:00,
2013-10-16 08:02:00,55.4,53.1,29.85,South,176,0.4,1.2,92,0.00,OVC,,0.07,5.0,WeatherDisplay:10.37,2013-10-16 12:02:00,
2013-10-16 08:07:00,55.2,52.9,29.85,WSW,249,0.0,2.3,92,0.00,OVC,,0.07,7.0,WeatherDisplay:10.37,2013-10-16 12:07:00,
2013-10-16 08:12:00,55.1,52.8,29.85,SW,215,0.0,1.2,92,0.00,OVC,,0.07,11.0,WeatherDisplay:10.37,2013-10-16 12:12:00,
2013-10-16 08:17:00,55.1,53.1,29.85,South,190,0.0,0.0,93,0.00,OVC,,0.07,18.0,WeatherDisplay:10.37,2013-10-16 12:17:00,
2013-10-16 08:22:00,54.9,52.9,29.85,West,266,1.0,2.3,93,0.00,OVC,,0.07,19.0,WeatherDisplay:10.37,2013-10-16 12:22:00,
2013-10-16 08:27:00,54.9,52.9,29.85,WSW,250,0.0,1.2,93,0.00,OVC,,0.07,30.0,WeatherDisplay:10.37,2013-10-16 12:27:00,
2013-10-16 08:32:00,54.9,52.9,29.85,SSW,195,0.9,3.0,93,0.00,OVC,,0.07,35.0,WeatherDisplay:10.37,2013-10-16 12:32:00,
2013-10-16 08:37:00,54.8,52.8,29.85,South,190,0.7,2.3,93,0.00,OVC,,0.07,39.0,WeatherDisplay:10.37,2013-10-16 12:37:00,
2013-10-16 08:42:00,54.8,52.8,29.86,SSE,163,0.6,3.5,93,0.00,OVC,,0.07,37.0,WeatherDisplay:10.37,2013-10-16 12:42:00,
2013-10-16 08:47:00,54.8,52.5,29.85,WNW,284,1.1,1.2,92,0.00,OVC,,0.07,54.0,WeatherDisplay:10.37,2013-10-16 12:47:00,
2013-10-16 08:52:00,54.9,52.6,29.85,SSW,194,1.2,3.0,92,0.00,OVC,,0.07,58.0,WeatherDisplay:10.37,2013-10-16 12:52:00,
2013-10-16 08:57:00,55.0,52.1,29.86,WSW,258,1.4,3.5,90,0.00,OVC,,0.07,58.0,WeatherDisplay:10.37,2013-10-16 12:57:00,
2013-10-16 09:02:00,55.1,52.2,29.86,WSW,248,0.1,3.5,90,0.00,OVC,,0.07,67.0,WeatherDisplay:10.37,2013-10-16 13:02:00,
2013-10-16 09:07:00,55.1,51.6,29.86,WSW,244,1.2,6.9,88,0.00,OVC,,0.07,62.0,WeatherDisplay:10.37,2013-10-16 13:07:00,
2013-10-16 09:12:00,55.2,52.0,29.86,SSW,211,1.1,3.5,89,0.00,OVC,,0.07,72.0,WeatherDisplay:10.37,2013-10-16 13:12:00,
2013-10-16 09:17:00,55.2,51.7,29.86,NW,310,2.5,4.0,88,0.00,OVC,,0.07,86.0,WeatherDisplay:10.37,2013-10-16 13:17:00,
2013-10-16 09:22:00,55.3,51.8,29.86,WNW,296,0.1,2.3,88,0.00,OVC,,0.07,76.0,WeatherDisplay:10.37,2013-10-16 13:22:00,
2013-10-16 09:27:00,55.3,51.5,29.86,West,275,5.0,6.9,87,0.00,OVC,,0.07,76.0,WeatherDisplay:10.37,2013-10-16 13:27:00,
2013-10-16 09:33:00,55.3,51.2,29.86,SSW,199,1.7,3.5,86,0.00,OVC,,0.07,74.0,WeatherDisplay:10.37,2013-10-16 13:33:00,
2013-10-16 09:38:00,55.2,51.1,29.86,NW,323,2.9,4.0,86,0.00,OVC,,0.07,84.0,WeatherDisplay:10.37,2013-10-16 13:38:00,
2013-10-16 09:43:00,55.3,50.5,29.86,WSW,244,4.2,5.8,84,0.00,OVC,,0.07,44.0,WeatherDisplay:10.37,2013-10-16 13:43:00,
2013-10-16 09:48:00,55.5,50.7,29.86,WSW,257,3.2,4.6,84,0.00,OVC,,0.07,188.0,WeatherDisplay:10.37,2013-10-16 13:48:00,
2013-10-16 09:53:00,55.8,50.4,29.86,West,260,4.7,6.0,82,0.00,OVC,,0.07,46.0,WeatherDisplay:10.37,2013-10-16 13:53:00,
2013-10-16 09:58:00,56.2,51.1,29.86,WSW,254,3.1,4.6,83,0.00,OVC,,0.07,74.0,WeatherDisplay:10.37,2013-10-16 13:58:00,
2013-10-16 10:03:00,56.4,51.0,29.86,WSW,240,2.5,4.6,82,0.00,OVC,,0.07,86.0,WeatherDisplay:10.37,2013-10-16 14:03:00,
2013-10-16 10:08:00,56.6,50.5,29.86,NW,313,4.3,10.4,80,0.00,OVC,,0.07,42.0,WeatherDisplay:10.37,2013-10-16 14:08:00,
2013-10-16 10:13:00,56.8,50.7,29.86,SSW,213,4.4,6.9,80,0.00,BKN,,0.07,42.0,WeatherDisplay:10.37,2013-10-16 14:13:00,
2013-10-16 10:18:00,57.1,50.6,29.86,West,273,4.0,5.8,79,0.00,BKN,,0.07,111.0,WeatherDisplay:10.37,2013-10-16 14:18:00,
2013-10-16 10:23:00,57.4,50.9,29.86,WSW,258,4.2,7.0,79,0.00,BKN,,0.07,230.0,WeatherDisplay:10.37,2013-10-16 14:23:00,
2013-10-16 10:28:00,57.8,50.3,29.86,WSW,248,5.9,9.2,76,0.00,BKN,,0.07,364.0,WeatherDisplay:10.37,2013-10-16 14:28:00,
2013-10-16 10:33:00,58.1,50.2,29.86,West,278,4.0,9.2,75,0.00,BKN,,0.07,397.0,WeatherDisplay:10.37,2013-10-16 14:33:00,
2013-10-16 10:38:00,58.5,50.2,29.86,SW,235,4.1,9.2,74,0.00,BKN,,0.07,413.0,WeatherDisplay:10.37,2013-10-16 14:38:00,
2013-10-16 10:43:00,58.7,50.4,29.86,West,269,2.8,6.9,74,0.00,BKN,,0.07,422.0,WeatherDisplay:10.37,2013-10-16 14:43:00,
2013-10-16 10:48:00,58.7,49.3,29.86,WSW,256,7.7,11.5,71,0.00,BKN,,0.07,79.0,WeatherDisplay:10.37,2013-10-16 14:48:00,
2013-10-16 10:53:00,58.6,50.0,29.86,SSW,207,4.2,4.6,73,0.00,BKN,,0.07,127.0,WeatherDisplay:10.37,2013-10-16 14:53:00,
2013-10-16 10:58:00,58.9,50.3,29.86,NNE,17,4.4,4.6,73,0.00,BKN,,0.07,206.0,WeatherDisplay:10.37,2013-10-16 14:58:00,
2013-10-16 11:03:00,59.0,49.2,29.86,SW,221,5.7,6.9,70,0.00,SCT,,0.07,297.0,WeatherDisplay:10.37,2013-10-16 15:03:00,
2013-10-16 11:08:00,59.1,48.9,29.86,South,190,6.0,9.2,69,0.00,SCT,,0.07,485.0,WeatherDisplay:10.37,2013-10-16 15:08:00,
2013-10-16 11:13:00,58.9,49.1,29.86,WSW,254,4.8,10.4,70,0.00,SCT,,0.07,404.0,WeatherDisplay:10.37,2013-10-16 15:13:00,
2013-10-16 11:18:00,58.9,49.5,29.85,West,262,3.4,4.6,71,0.00,SCT,,0.07,364.0,WeatherDisplay:10.37,2013-10-16 15:18:00,
2013-10-16 11:23:00,59.1,49.3,29.85,WNW,288,3.4,5.8,70,0.00,SCT,,0.07,497.0,WeatherDisplay:10.37,2013-10-16 15:23:00,
2013-10-16 11:28:00,59.1,48.1,29.85,WNW,292,6.6,11.5,67,0.00,SCT,,0.07,130.0,WeatherDisplay:10.37,2013-10-16 15:28:00,
2013-10-16 11:33:00,58.9,48.0,29.86,WSW,237,7.2,11.5,67,0.00,SCT,,0.07,206.0,WeatherDisplay:10.37,2013-10-16 15:33:00,
2013-10-16 11:38:00,58.9,48.0,29.86,NW,322,3.9,8.1,67,0.00,SCT,,0.07,213.0,WeatherDisplay:10.37,2013-10-16 15:38:00,
2013-10-16 11:43:00,58.9,47.6,29.86,SW,236,4.0,9.2,66,0.00,SCT,,0.07,54.0,WeatherDisplay:10.37,2013-10-16 15:43:00,
2013-10-16 11:48:00,59.0,48.1,29.86,WNW,284,5.4,9.2,67,0.00,SCT,,0.07,65.0,WeatherDisplay:10.37,2013-10-16 15:48:00,
2013-10-16 11:53:00,59.1,48.5,29.85,WSW,250,2.0,6.9,68,0.00,SCT,,0.07,186.0,WeatherDisplay:10.37,2013-10-16 15:53:00,
2013-10-16 11:58:00,59.7,48.3,29.85,WSW,246,4.3,6.9,66,0.00,SCT,,0.07,69.0,WeatherDisplay:10.37,2013-10-16 15:58:00,
2013-10-16 12:03:00,60.0,47.4,29.85,WNW,297,4.2,10.4,63,0.00,SCT,,0.07,292.0,WeatherDisplay:10.37,2013-10-16 16:03:00,
2013-10-16 12:08:00,59.9,47.3,29.85,WNW,285,6.6,11.5,63,0.00,SCT,,0.07,582.0,WeatherDisplay:10.37,2013-10-16 16:08:00,
2013-10-16 12:13:00,59.8,46.3,29.85,WSW,245,6.5,10.4,61,0.00,SCT,,0.07,584.0,WeatherDisplay:10.37,2013-10-16 16:13:00,
2013-10-16 12:18:00,59.8,47.2,29.85,WNW,292,7.5,15.0,63,0.00,SCT,,0.07,591.0,WeatherDisplay:10.37,2013-10-16 16:18:00,
2013-10-16 12:23:00,60.2,47.6,29.85,NW,321,6.9,14.0,63,0.00,SCT,,0.07,621.0,WeatherDisplay:10.37,2013-10-16 16:23:00,
2013-10-16 12:28:00,60.4,47.3,29.85,South,169,3.5,6.9,62,0.00,SCT,,0.07,606.0,WeatherDisplay:10.37,2013-10-16 16:28:00,
2013-10-16 12:33:00,60.4,45.5,29.85,WNW,295,4.8,11.5,58,0.00,SCT,,0.07,613.0,WeatherDisplay:10.37,2013-10-16 16:33:00,
2013-10-16 12:38:00,60.6,46.2,29.85,West,259,4.2,5.8,59,0.00,SCT,,0.07,612.0,WeatherDisplay:10.37,2013-10-16 16:38:00,
2013-10-16 12:43:00,60.5,45.6,29.85,West,275,6.2,9.2,58,0.00,SCT,,0.07,619.0,WeatherDisplay:10.37,2013-10-16 16:43:00,
2013-10-16 12:48:00,60.3,46.8,29.85,SW,232,6.6,9.0,61,0.00,SCT,,0.07,621.0,WeatherDisplay:10.37,2013-10-16 16:48:00,
2013-10-16 12:53:00,60.4,46.9,29.85,SW,223,4.4,8.1,61,0.01,RA,,0.08,617.0,WeatherDisplay:10.37,2013-10-16 16:53:00,
2013-10-16 12:58:00,60.5,46.5,29.86,SSE,168,6.5,10.4,60,0.01,RA,,0.08,622.0,WeatherDisplay:10.37,2013-10-16 16:58:00,
2013-10-16 13:03:00,60.9,46.9,29.86,WNW,293,6.1,11.5,60,0.01,SCT,,0.08,635.0,WeatherDisplay:10.37,2013-10-16 17:03:00,
2013-10-16 13:08:00,60.9,46.5,29.85,NW,317,4.8,6.9,59,0.01,SCT,,0.08,635.0,WeatherDisplay:10.37,2013-10-16 17:08:00,
2013-10-16 13:13:00,61.1,48.8,29.85,West,269,3.3,8.1,64,0.01,SCT,,0.08,635.0,WeatherDisplay:10.37,2013-10-16 17:13:00,
2013-10-16 13:18:00,61.2,46.8,29.85,West,259,8.8,13.8,59,0.01,SCT,,0.08,633.0,WeatherDisplay:10.37,2013-10-16 17:18:00,
2013-10-16 13:23:00,61.1,47.5,29.85,NW,319,5.5,7.0,61,0.01,SCT,,0.08,666.0,WeatherDisplay:10.37,2013-10-16 17:23:00,
2013-10-16 13:28:00,61.4,47.4,29.85,WSW,249,4.6,8.1,60,0.01,SCT,,0.08,656.0,WeatherDisplay:10.37,2013-10-16 17:28:00,
2013-10-16 13:33:00,61.5,47.5,29.85,West,279,5.2,8.1,60,0.01,SCT,,0.08,619.0,WeatherDisplay:10.37,2013-10-16 17:33:00,
2013-10-16 13:38:00,61.4,47.8,29.85,West,274,4.6,6.9,61,0.01,SCT,,0.08,636.0,WeatherDisplay:10.37,2013-10-16 17:38:00,
2013-10-16 13:43:00,61.6,47.6,29.84,WSW,247,2.5,6.9,60,0.01,SCT,,0.08,647.0,WeatherDisplay:10.37,2013-10-16 17:43:00,
2013-10-16 13:48:00,61.5,47.5,29.85,WNW,298,7.0,9.2,60,0.01,SCT,,0.08,707.0,WeatherDisplay:10.37,2013-10-16 17:48:00,
2013-10-16 13:53:00,61.1,47.5,29.85,SW,228,2.5,4.0,61,0.00,SCT,,0.08,650.0,WeatherDisplay:10.37,2013-10-16 17:53:00,
2013-10-16 13:58:00,61.5,47.5,29.85,SSW,202,4.6,8.1,60,0.00,SCT,,0.08,629.0,WeatherDisplay:10.37,2013-10-16 17:58:00,
2013-10-16 14:03:00,61.4,46.9,29.84,SSW,197,1.4,5.8,59,0.00,SCT,,0.08,624.0,WeatherDisplay:10.37,2013-10-16 18:03:00,
2013-10-16 14:08:00,61.1,46.7,29.85,West,259,4.9,11.5,59,0.00,SCT,,0.08,677.0,WeatherDisplay:10.37,2013-10-16 18:08:00,
2013-10-16 14:13:00,60.9,46.9,29.85,WSW,253,5.3,8.1,60,0.00,SCT,,0.08,735.0,WeatherDisplay:10.37,2013-10-16 18:13:00,
2013-10-16 14:18:00,61.2,47.6,29.85,West,269,4.2,6.0,61,0.00,SCT,,0.08,650.0,WeatherDisplay:10.37,2013-10-16 18:18:00,
2013-10-16 14:23:00,61.3,46.4,29.85,NNE,26,3.9,5.8,58,0.00,SCT,,0.08,617.0,WeatherDisplay:10.37,2013-10-16 18:23:00,
2013-10-16 14:27:00,61.2,45.8,29.85,West,263,6.6,11.5,57,0.00,SCT,,0.08,613.0,WeatherDisplay:10.37,2013-10-16 18:27:00,
2013-10-16 14:32:00,61.2,46.3,29.85,SW,229,3.5,6.9,58,0.00,SCT,,0.08,679.0,WeatherDisplay:10.37,2013-10-16 18:32:00,
2013-10-16 14:37:00,61.3,46.8,29.85,NNW,348,4.5,11.5,59,0.00,SCT,,0.08,163.0,WeatherDisplay:10.37,2013-10-16 18:37:00,
2013-10-16 14:42:00,60.6,46.6,29.85,WSW,253,6.4,9.2,60,0.00,SCT,,0.08,654.0,WeatherDisplay:10.37,2013-10-16 18:42:00,
2013-10-16 14:47:00,60.6,46.6,29.85,West,277,8.6,12.7,60,0.00,SCT,,0.08,635.0,WeatherDisplay:10.37,2013-10-16 18:47:00,
2013-10-16 14:52:00,60.2,46.3,29.85,WSW,250,5.7,8.1,60,0.00,SCT,,0.08,680.0,WeatherDisplay:10.37,2013-10-16 18:52:00,
2013-10-16 14:57:00,60.4,47.3,29.85,WNW,292,2.8,6.9,62,0.00,SCT,,0.08,615.0,WeatherDisplay:10.37,2013-10-16 18:57:00,
2013-10-16 15:02:00,60.6,47.1,29.85,NW,312,2.1,5.0,61,0.00,SCT,,0.08,598.0,WeatherDisplay:10.37,2013-10-16 19:02:00,
2013-10-16 15:07:00,60.4,46.0,29.86,West,260,4.4,14.0,59,0.00,SCT,,0.08,529.0,WeatherDisplay:10.37,2013-10-16 19:07:00,
2013-10-16 15:12:00,59.3,45.0,29.86,SW,225,5.5,9.2,59,0.00,SCT,,0.08,188.0,WeatherDisplay:10.37,2013-10-16 19:12:00,
2013-10-16 15:17:00,58.6,45.2,29.86,WSW,242,7.8,13.8,61,0.00,SCT,,0.08,285.0,WeatherDisplay:10.37,2013-10-16 19:17:00,
2013-10-16 15:22:00,58.0,45.0,29.86,SW,224,7.2,11.5,62,0.00,SCT,,0.08,179.0,WeatherDisplay:10.37,2013-10-16 19:22:00,
2013-10-16 15:27:00,58.0,45.0,29.86,WSW,258,6.3,8.1,62,0.00,SCT,,0.08,185.0,WeatherDisplay:10.37,2013-10-16 19:27:00,
2013-10-16 15:32:00,58.8,46.6,29.86,WSW,249,4.9,11.0,64,0.00,SCT,,0.08,657.0,WeatherDisplay:10.37,2013-10-16 19:32:00,
2013-10-16 15:37:00,58.8,46.6,29.85,WNW,298,3.5,8.0,64,0.00,SCT,,0.08,636.0,WeatherDisplay:10.37,2013-10-16 19:37:00,
2013-10-16 15:42:00,59.4,46.4,29.85,WSW,257,5.3,11.5,62,0.00,SCT,,0.08,301.0,WeatherDisplay:10.37,2013-10-16 19:42:00,
2013-10-16 15:47:00,59.7,47.1,29.85,SSW,192,1.9,5.8,63,0.00,SCT,,0.08,592.0,WeatherDisplay:10.37,2013-10-16 19:47:00,
2013-10-16 15:52:00,59.5,45.6,29.85,West,262,5.5,10.4,60,0.00,SCT,,0.08,137.0,WeatherDisplay:10.37,2013-10-16 19:52:00,
2013-10-16 15:57:00,58.5,45.1,29.85,WSW,243,8.8,13.8,61,0.00,SCT,,0.08,547.0,WeatherDisplay:10.37,2013-10-16 19:57:00,
2013-10-16 16:02:00,58.1,45.1,29.85,West,261,6.0,10.4,62,0.00,SCT,,0.08,332.0,WeatherDisplay:10.37,2013-10-16 20:02:00,
2013-10-16 16:07:00,58.6,46.0,29.85,West,280,5.1,9.2,63,0.00,SCT,,0.08,519.0,WeatherDisplay:10.37,2013-10-16 20:07:00,
2013-10-16 16:12:00,58.7,45.7,29.85,West,259,6.6,11.5,62,0.00,SCT,,0.08,153.0,WeatherDisplay:10.37,2013-10-16 20:12:00,
2013-10-16 16:17:00,58.2,45.7,29.85,West,267,6.6,10.4,63,0.00,SCT,,0.08,501.0,WeatherDisplay:10.37,2013-10-16 20:17:00,
2013-10-16 16:22:00,57.7,45.6,29.85,SW,234,3.6,4.6,64,0.00,SCT,,0.08,188.0,WeatherDisplay:10.37,2013-10-16 20:22:00,
2013-10-16 16:27:00,57.5,45.8,29.85,WNW,290,6.3,11.5,65,0.00,SCT,,0.08,156.0,WeatherDisplay:10.37,2013-10-16 20:27:00,
2013-10-16 16:32:00,57.0,45.7,29.85,West,262,6.9,10.4,66,0.00,SCT,,0.08,107.0,WeatherDisplay:10.37,2013-10-16 20:32:00,
2013-10-16 16:37:00,56.8,46.3,29.85,SW,232,2.1,9.0,68,0.00,SCT,,0.08,125.0,WeatherDisplay:10.37,2013-10-16 20:37:00,
2013-10-16 16:42:00,56.6,45.8,29.85,WNW,282,5.6,11.5,67,0.00,SCT,,0.08,121.0,WeatherDisplay:10.37,2013-10-16 20:42:00,
2013-10-16 16:47:00,56.5,46.1,29.85,NW,326,2.0,4.6,68,0.00,SCT,,0.08,93.0,WeatherDisplay:10.37,2013-10-16 20:47:00,
2013-10-16 16:52:00,56.4,46.0,29.85,WSW,252,5.3,9.2,68,0.00,SCT,,0.08,137.0,WeatherDisplay:10.37,2013-10-16 20:52:00,
2013-10-16 16:57:00,56.4,46.4,29.85,WSW,258,4.5,6.9,69,0.00,SCT,,0.08,121.0,WeatherDisplay:10.37,2013-10-16 20:57:00,
2013-10-16 17:02:00,56.2,45.8,29.86,WSW,254,8.9,12.7,68,0.00,BKN,,0.08,113.0,WeatherDisplay:10.37,2013-10-16 21:02:00,
2013-10-16 17:07:00,56.0,46.4,29.86,WSW,253,6.2,10.4,70,0.00,BKN,,0.08,88.0,WeatherDisplay:10.37,2013-10-16 21:07:00,
2013-10-16 17:12:00,55.9,46.3,29.86,WSW,240,3.6,6.0,70,0.00,BKN,,0.08,74.0,WeatherDisplay:10.37,2013-10-16 21:12:00,
2013-10-16 17:17:00,55.9,46.6,29.86,SW,236,2.4,4.0,71,0.00,BKN,,0.08,84.0,WeatherDisplay:10.37,2013-10-16 21:17:00,
2013-10-16 17:22:00,55.9,46.6,29.86,West,269,2.8,8.1,71,0.00,BKN,,0.08,77.0,WeatherDisplay:10.37,2013-10-16 21:22:00,
2013-10-16 17:27:00,55.7,46.4,29.87,NNW,331,3.9,9.2,71,0.00,BKN,,0.08,74.0,WeatherDisplay:10.37,2013-10-16 21:27:00,
2013-10-16 17:32:00,55.7,46.4,29.87,WSW,249,3.8,5.8,71,0.00,BKN,,0.08,67.0,WeatherDisplay:10.37,2013-10-16 21:32:00,
2013-10-16 17:37:00,55.5,46.2,29.87,WNW,291,5.0,9.2,71,0.00,BKN,,0.08,62.0,WeatherDisplay:10.37,2013-10-16 21:37:00,
2013-10-16 17:42:00,55.3,46.4,29.87,WSW,240,6.6,10.4,72,0.00,BKN,,0.08,58.0,WeatherDisplay:10.37,2013-10-16 21:42:00,
2013-10-16 17:47:00,55.2,46.7,29.87,SW,229,4.0,5.0,73,0.00,BKN,,0.08,60.0,WeatherDisplay:10.37,2013-10-16 21:47:00,
2013-10-16 17:52:00,55.1,46.6,29.87,WNW,294,2.9,4.6,73,0.00,BKN,,0.08,44.0,WeatherDisplay:10.37,2013-10-16 21:52:00,
2013-10-16 17:57:00,55.0,46.5,29.87,NNW,333,4.8,6.9,73,0.00,BKN,,0.08,33.0,WeatherDisplay:10.37,2013-10-16 21:57:00,
2013-10-16 18:02:00,54.8,46.3,29.87,WSW,248,4.6,10.4,73,0.00,OVC,,0.08,30.0,WeatherDisplay:10.37,2013-10-16 22:02:00,
2013-10-16 18:07:00,54.5,46.0,29.87,SW,230,6.2,10.4,73,0.00,OVC,,0.08,26.0,WeatherDisplay:10.37,2013-10-16 22:07:00,
2013-10-16 18:12:00,54.3,46.2,29.88,SW,233,5.3,9.2,74,0.00,OVC,,0.08,18.0,WeatherDisplay:10.37,2013-10-16 22:12:00,
2013-10-16 18:17:00,54.2,46.1,29.88,WSW,248,4.9,9.2,74,0.00,OVC,,0.08,16.0,WeatherDisplay:10.37,2013-10-16 22:17:00,
2013-10-16 18:22:00,54.1,46.3,29.88,SW,234,2.9,4.6,75,0.00,OVC,,0.08,12.0,WeatherDisplay:10.37,2013-10-16 22:22:00,
2013-10-16 18:27:00,53.9,46.2,29.88,SW,230,5.7,5.7,75,0.00,OVC,,0.08,9.0,WeatherDisplay:10.37,2013-10-16 22:27:00,
2013-10-16 18:32:00,53.8,46.1,29.88,West,270,3.9,10.4,75,0.00,OVC,,0.08,7.0,WeatherDisplay:10.37,2013-10-16 22:32:00,
2013-10-16 18:37:00,53.7,46.3,29.88,West,260,2.6,8.1,76,0.00,OVC,,0.08,5.0,WeatherDisplay:10.37,2013-10-16 22:37:00,
2013-10-16 18:42:00,53.6,46.2,29.88,NNW,343,3.0,5.8,76,0.00,OVC,,0.08,5.0,WeatherDisplay:10.37,2013-10-16 22:42:00,
2013-10-16 18:47:00,53.5,46.5,29.88,WNW,299,2.8,4.6,77,0.00,OVC,,0.08,0.0,WeatherDisplay:10.37,2013-10-16 22:47:00,
2013-10-16 18:52:00,53.4,46.4,29.88,West,275,3.6,5.0,77,0.00,OVC,,0.08,0.0,WeatherDisplay:10.37,2013-10-16 22:52:00,
2013-10-16 18:57:00,53.4,46.0,29.88,WSW,251,6.2,10.4,76,0.00,OVC,,0.08,0.0,WeatherDisplay:10.37,2013-10-16 22:57:00,
2013-10-16 19:02:00,53.3,46.3,29.88,West,276,4.7,8.1,77,0.00,OVC,,0.08,0.0,WeatherDisplay:10.37,2013-10-16 23:02:00,
2013-10-16 19:07:00,53.2,46.2,29.88,WSW,243,5.7,8.1,77,0.00,OVC,,0.08,0.0,WeatherDisplay:10.37,2013-10-16 23:07:00,
2013-10-16 19:12:00,53.2,46.2,29.89,SW,225,2.0,3.5,77,0.00,OVC,,0.08,0.0,WeatherDisplay:10.37,2013-10-16 23:12:00,
2013-10-16 19:17:00,53.0,46.0,29.89,WSW,251,7.1,10.4,77,0.00,OVC,,0.08,0.0,WeatherDisplay:10.37,2013-10-16 23:17:00,
2013-10-16 19:22:00,53.0,46.3,29.89,WSW,251,4.4,8.1,78,0.00,OVC,,0.08,0.0,WeatherDisplay:10.37,2013-10-16 23:22:00,
2013-10-16 19:27:00,52.9,46.2,29.89,West,265,3.1,6.9,78,0.00,OVC,,0.08,0.0,WeatherDisplay:10.37,2013-10-16 23:27:00,
2013-10-16 19:32:00,52.8,46.1,29.89,WSW,242,5.5,10.4,78,0.00,OVC,,0.08,0.0,WeatherDisplay:10.37,2013-10-16 23:32:00,
2013-10-16 19:37:00,52.8,46.1,29.90,WSW,258,3.0,7.0,78,0.00,OVC,,0.08,0.0,WeatherDisplay:10.37,2013-10-16 23:37:00,
2013-10-16 19:42:00,52.8,46.5,29.90,West,281,2.0,6.0,79,0.00,OVC,,0.08,0.0,WeatherDisplay:10.37,2013-10-16 23:42:00,
2013-10-16 19:47:00,52.8,46.5,29.90,WSW,256,6.4,8.1,79,0.00,OVC,,0.08,0.0,WeatherDisplay:10.37,2013-10-16 23:47:00,
2013-10-16 19:52:00,52.8,46.5,29.90,WSW,244,2.5,5.8,79,0.00,OVC,,0.08,0.0,WeatherDisplay:10.37,2013-10-16 23:52:00,
2013-10-16 19:57:00,52.7,46.4,29.90,West,271,2.3,6.9,79,0.00,OVC,,0.08,0.0,WeatherDisplay:10.37,2013-10-16 23:57:00,
2013-10-16 20:02:00,52.7,46.4,29.90,SW,233,4.2,5.8,79,0.00,OVC,,0.08,0.0,WeatherDisplay:10.37,2013-10-17 00:02:00,
2013-10-16 20:07:00,52.7,46.4,29.90,West,268,2.7,5.0,79,0.00,OVC,,0.08,0.0,WeatherDisplay:10.37,2013-10-17 00:07:00,
2013-10-16 20:12:00,52.7,46.4,29.90,WSW,242,1.6,3.5,79,0.00,OVC,,0.08,0.0,WeatherDisplay:10.37,2013-10-17 00:12:00,
2013-10-16 20:17:00,52.7,46.7,29.90,SW,220,1.5,2.3,80,0.00,OVC,,0.08,0.0,WeatherDisplay:10.37,2013-10-17 00:17:00,
2013-10-16 20:22:00,52.6,46.6,29.91,South,169,0.9,3.5,80,0.00,OVC,,0.08,0.0,WeatherDisplay:10.37,2013-10-17 00:22:00,
2013-10-16 20:27:00,52.6,46.6,29.91,WSW,253,2.1,5.0,80,0.00,OVC,,0.08,0.0,WeatherDisplay:10.37,2013-10-17 00:27:00,
2013-10-16 20:32:00,52.6,46.3,29.91,SW,235,3.3,4.6,79,0.00,OVC,,0.08,0.0,WeatherDisplay:10.37,2013-10-17 00:32:00,
2013-10-16 20:37:00,52.6,46.3,29.91,NW,306,3.2,6.9,79,0.00,OVC,,0.08,0.0,WeatherDisplay:10.37,2013-10-17 00:37:00,
2013-10-16 20:42:00,52.6,46.3,29.91,NW,324,2.3,4.6,79,0.00,OVC,,0.08,0.0,WeatherDisplay:10.37,2013-10-17 00:42:00,
2013-10-16 20:47:00,52.5,46.5,29.91,West,267,4.1,5.8,80,0.00,OVC,,0.08,0.0,WeatherDisplay:10.37,2013-10-17 00:47:00,
2013-10-16 20:52:00,52.5,46.5,29.91,SSW,200,1.5,3.5,80,0.00,OVC,,0.08,0.0,WeatherDisplay:10.37,2013-10-17 00:52:00,
2013-10-16 20:57:00,52.4,46.4,29.91,WNW,283,0.9,3.5,80,0.00,OVC,,0.08,0.0,WeatherDisplay:10.37,2013-10-17 00:57:00,
2013-10-16 21:02:00,52.4,46.4,29.92,SW,219,0.4,2.0,80,0.00,OVC,,0.08,0.0,WeatherDisplay:10.37,2013-10-17 01:02:00,
2013-10-16 21:08:00,52.4,46.4,29.92,South,179,5.4,10.4,80,0.00,OVC,,0.08,0.0,WeatherDisplay:10.37,2013-10-17 01:08:00,
2013-10-16 21:13:00,52.3,46.3,29.92,West,265,1.3,5.8,80,0.00,OVC,,0.08,0.0,WeatherDisplay:10.37,2013-10-17 01:13:00,
2013-10-16 21:18:00,52.3,46.3,29.92,South,172,1.1,3.5,80,0.00,OVC,,0.08,0.0,WeatherDisplay:10.37,2013-10-17 01:18:00,
2013-10-16 21:23:00,52.3,46.3,29.92,West,273,4.3,4.6,80,0.00,OVC,,0.08,0.0,WeatherDisplay:10.37,2013-10-17 01:23:00,
2013-10-16 21:28:00,52.3,46.6,29.92,West,267,3.3,5.0,81,0.00,OVC,,0.08,0.0,WeatherDisplay:10.37,2013-10-17 01:28:00,
2013-10-16 21:33:00,52.2,46.5,29.92,West,275,1.5,5.8,81,0.00,OVC,,0.08,0.0,WeatherDisplay:10.37,2013-10-17 01:33:00,
2013-10-16 21:38:00,52.2,46.5,29.92,West,262,3.5,4.6,81,0.00,OVC,,0.08,0.0,WeatherDisplay:10.37,2013-10-17 01:38:00,
2013-10-16 21:43:00,52.2,46.5,29.92,SSW,213,1.9,2.3,81,0.00,OVC,,0.08,0.0,WeatherDisplay:10.37,2013-10-17 01:43:00,
2013-10-16 21:48:00,52.1,46.4,29.93,WNW,284,1.2,5.8,81,0.00,OVC,,0.08,0.0,WeatherDisplay:10.37,2013-10-17 01:48:00,
2013-10-16 21:53:00,52.1,46.4,29.92,SE,131,1.0,3.5,81,0.00,OVC,,0.08,0.0,WeatherDisplay:10.37,2013-10-17 01:53:00,
2013-10-16 21:58:00,52.0,46.3,29.92,SW,234,3.9,9.2,81,0.00,OVC,,0.08,0.0,WeatherDisplay:10.37,2013-10-17 01:58:00,
2013-10-16 22:03:00,52.0,46.7,29.93,SSE,151,0.9,3.5,82,0.00,OVC,,0.08,0.0,WeatherDisplay:10.37,2013-10-17 02:03:00,
2013-10-16 22:08:00,52.0,46.7,29.93,WSW,248,1.6,3.5,82,0.00,OVC,,0.08,0.0,WeatherDisplay:10.37,2013-10-17 02:08:00,
2013-10-16 22:13:00,52.0,46.7,29.93,SSE,168,3.1,3.5,82,0.00,OVC,,0.08,0.0,WeatherDisplay:10.37,2013-10-17 02:13:00,
2013-10-16 22:18:00,51.9,46.6,29.93,SW,230,1.4,3.5,82,0.00,OVC,,0.08,0.0,WeatherDisplay:10.37,2013-10-17 02:18:00,
2013-10-16 22:23:00,51.9,46.6,29.93,WSW,245,3.7,4.0,82,0.00,OVC,,0.08,0.0,WeatherDisplay:10.37,2013-10-17 02:23:00,
2013-10-16 22:28:00,51.9,46.6,29.93,SSW,205,0.5,3.5,82,0.00,OVC,,0.08,0.0,WeatherDisplay:10.37,2013-10-17 02:28:00,
2013-10-16 22:33:00,51.9,46.6,29.93,SSW,202,1.8,3.5,82,0.00,OVC,,0.08,0.0,WeatherDisplay:10.37,2013-10-17 02:33:00,
2013-10-16 22:38:00,51.8,46.5,29.93,WNW,293,2.4,4.0,82,0.00,OVC,,0.08,0.0,WeatherDisplay:10.37,2013-10-17 02:38:00,
2013-10-16 22:43:00,51.8,46.5,29.93,East,101,1.8,4.6,82,0.00,OVC,,0.08,0.0,WeatherDisplay:10.37,2013-10-17 02:43:00,
2013-10-16 22:48:00,51.8,46.5,29.93,WSW,256,2.4,3.5,82,0.00,OVC,,0.08,0.0,WeatherDisplay:10.37,2013-10-17 02:48:00,
2013-10-16 22:53:00,51.8,46.5,29.93,West,262,1.2,3.5,82,0.00,OVC,,0.08,0.0,WeatherDisplay:10.37,2013-10-17 02:53:00,
2013-10-16 22:58:00,51.8,46.5,29.93,West,270,4.5,4.5,82,0.00,OVC,,0.08,0.0,WeatherDisplay:10.37,2013-10-17 02:58:00,
2013-10-16 23:03:00,51.8,46.5,29.93,West,262,2.9,3.5,82,0.00,OVC,,0.08,0.0,WeatherDisplay:10.37,2013-10-17 03:03:00,
2013-10-16 23:08:00,51.7,46.4,29.93,SW,222,1.3,3.5,82,0.00,OVC,,0.08,0.0,WeatherDisplay:10.37,2013-10-17 03:08:00,
2013-10-16 23:13:00,51.7,46.4,29.93,SW,223,3.2,8.1,82,0.00,OVC,,0.08,0.0,WeatherDisplay:10.37,2013-10-17 03:13:00,
2013-10-16 23:18:00,51.7,46.4,29.93,West,279,2.2,3.5,82,0.00,OVC,,0.08,0.0,WeatherDisplay:10.37,2013-10-17 03:18:00,
2013-10-16 23:23:00,51.7,46.4,29.93,WSW,252,1.4,2.3,82,0.00,OVC,,0.08,0.0,WeatherDisplay:10.37,2013-10-17 03:23:00,
2013-10-16 23:28:00,51.7,46.4,29.92,West,273,1.5,2.3,82,0.00,OVC,,0.08,0.0,WeatherDisplay:10.37,2013-10-17 03:28:00,
2013-10-16 23:33:00,51.7,46.4,29.92,SSW,196,2.5,4.6,82,0.00,OVC,,0.08,0.0,WeatherDisplay:10.37,2013-10-17 03:33:00,
2013-10-16 23:38:00,51.7,46.4,29.93,South,182,1.5,3.5,82,0.00,OVC,,0.08,0.0,WeatherDisplay:10.37,2013-10-17 03:38:00,
2013-10-16 23:43:00,51.7,46.4,29.92,SW,219,1.9,3.5,82,0.00,OVC,,0.08,0.0,WeatherDisplay:10.37,2013-10-17 03:43:00,
2013-10-16 23:48:00,51.6,46.6,29.92,SW,229,1.2,3.5,83,0.00,OVC,,0.08,0.0,WeatherDisplay:10.37,2013-10-17 03:48:00,
2013-10-16 23:53:00,51.6,46.3,29.92,SSW,194,1.8,3.5,82,0.00,OVC,,0.08,0.0,WeatherDisplay:10.37,2013-10-17 03:53:00,
2013-10-16 23:58:00,51.6,46.6,29.92,SW,229,1.8,3.5,83,0.00,OVC,,0.08,0.0,WeatherDisplay:10.37,2013-10-17 03:58:00,